createdAt,value
2018-07-02T00:00:03.296Z,17.11
2018-07-02T00:02:31.402Z,16.96
2018-07-02T00:04:59.565Z,16.88
2018-07-02T00:07:29.273Z,16.89
2018-07-02T00:09:57.517Z,17.02
2018-07-02T00:12:25.849Z,16.87
2018-07-02T00:14:54.600Z,16.80
2018-07-02T00:17:22.798Z,16.81
2018-07-02T00:19:51.135Z,16.83
2018-07-02T00:22:19.377Z,16.64
2018-07-02T00:24:47.587Z,16.74
2018-07-02T00:27:15.974Z,16.58
2018-07-02T00:29:44.260Z,16.58
2018-07-02T00:32:12.496Z,16.62
2018-07-02T00:34:40.846Z,16.52
2018-07-02T00:37:09.541Z,16.54
2018-07-02T00:39:37.999Z,16.59
2018-07-02T00:42:06.259Z,16.31
2018-07-02T00:44:34.406Z,16.36
2018-07-02T00:47:02.815Z,16.32
2018-07-02T00:49:31.326Z,16.24
2018-07-02T00:52:00.736Z,16.25
2018-07-02T00:54:29.269Z,16.24
2018-07-02T00:56:57.793Z,16.02
2018-07-02T00:59:26.325Z,15.98
2018-07-02T01:01:55.418Z,16.05
2018-07-02T01:04:23.692Z,16.00
2018-07-02T01:06:52.429Z,15.15
2018-07-02T01:09:21.623Z,15.79
2018-07-02T01:11:50.224Z,15.77
2018-07-02T01:14:18.803Z,15.84
2018-07-02T01:16:47.214Z,15.65
2018-07-02T01:19:15.593Z,15.81
2018-07-02T01:21:44.106Z,15.56
2018-07-02T01:24:12.913Z,15.71
2018-07-02T01:26:41.609Z,15.70
2018-07-02T01:29:10.122Z,15.64
2018-07-02T01:31:39.291Z,15.68
2018-07-02T01:34:07.547Z,15.50
2018-07-02T01:36:36.393Z,15.35
2018-07-02T01:39:08.065Z,15.49
2018-07-02T01:41:36.573Z,15.62
2018-07-02T01:44:04.927Z,15.25
2018-07-02T01:46:33.324Z,15.39
2018-07-02T01:49:01.869Z,15.18
2018-07-02T01:51:30.249Z,15.17
2018-07-02T01:53:58.938Z,15.29
2018-07-02T01:56:27.430Z,15.17
2018-07-02T01:59:00.050Z,15.09
2018-07-02T02:01:28.547Z,15.02
2018-07-02T02:03:56.905Z,15.09
2018-07-02T02:06:25.459Z,15.00
2018-07-02T02:08:54.045Z,15.19
2018-07-02T02:11:22.560Z,14.98
2018-07-02T02:13:50.858Z,14.77
2018-07-02T02:16:19.614Z,14.83
2018-07-02T02:18:47.926Z,14.78
2018-07-02T02:21:16.252Z,14.62
2018-07-02T02:23:49.191Z,14.64
2018-07-02T02:26:18.091Z,14.64
2018-07-02T02:28:46.467Z,14.53
2018-07-02T02:31:14.976Z,14.52
2018-07-02T02:33:44.282Z,14.62
2018-07-02T02:36:17.194Z,14.54
2018-07-02T02:38:45.540Z,14.45
2018-07-02T02:41:14.489Z,14.46
2018-07-02T02:43:43.117Z,14.51
2018-07-02T02:46:11.469Z,14.44
2018-07-02T02:48:39.678Z,14.34
2018-07-02T02:51:07.937Z,14.46
2018-07-02T02:53:36.179Z,14.34
2018-07-02T02:56:04.531Z,14.27
2018-07-02T02:58:32.883Z,14.21
2018-07-02T03:01:01.325Z,14.31
2018-07-02T03:03:34.498Z,14.08
2018-07-02T03:06:02.972Z,14.17
2018-07-02T03:08:31.497Z,14.18
2018-07-02T03:10:59.729Z,14.25
2018-07-02T03:13:28.011Z,14.18
2018-07-02T03:15:56.202Z,14.33
2018-07-02T03:18:24.925Z,14.28
2018-07-02T03:20:53.276Z,14.13
2018-07-02T03:23:21.483Z,14.20
2018-07-02T03:25:49.926Z,14.09
2018-07-02T03:28:18.227Z,13.93
2018-07-02T03:30:46.654Z,13.92
2018-07-02T03:33:15.350Z,14.02
2018-07-02T03:35:43.589Z,13.90
2018-07-02T03:38:11.784Z,13.89
2018-07-02T03:40:40.106Z,14.04
2018-07-02T03:43:08.603Z,13.95
2018-07-02T03:45:36.931Z,13.99
2018-07-02T03:48:05.194Z,14.04
2018-07-02T03:50:33.519Z,13.96
2018-07-02T03:53:01.878Z,13.95
2018-07-02T03:55:30.067Z,13.86
2018-07-02T03:57:58.666Z,13.89
2018-07-02T04:00:27.461Z,13.76
2018-07-02T04:02:55.804Z,13.82
2018-07-02T04:05:24.082Z,13.89
2018-07-02T04:07:52.265Z,13.90
2018-07-02T04:10:20.411Z,14.07
2018-07-02T04:12:48.688Z,13.87
2018-07-02T04:15:17.154Z,13.78
2018-07-02T04:17:45.352Z,13.76
2018-07-02T04:20:13.792Z,13.83
2018-07-02T04:22:42.025Z,13.84
2018-07-02T04:25:10.820Z,13.98
2018-07-02T04:27:39.053Z,13.96
2018-07-02T04:30:07.395Z,13.90
2018-07-02T04:32:35.790Z,13.87
2018-07-02T04:35:04.260Z,13.90
2018-07-02T04:37:32.367Z,13.93
2018-07-02T04:40:00.557Z,13.87
2018-07-02T04:42:29.221Z,13.89
2018-07-02T04:44:57.522Z,13.75
2018-07-02T04:47:25.691Z,13.81
2018-07-02T04:49:53.900Z,13.80
2018-07-02T04:52:22.105Z,13.84
2018-07-02T04:54:50.358Z,13.64
2018-07-02T04:57:18.666Z,13.82
2018-07-02T04:59:46.969Z,13.69
2018-07-02T05:02:15.305Z,13.64
2018-07-02T05:04:44.057Z,13.80
2018-07-02T05:07:12.272Z,13.87
2018-07-02T05:09:40.879Z,13.74
2018-07-02T05:12:10.465Z,13.71
2018-07-02T05:14:40.031Z,13.80
2018-07-02T05:17:08.362Z,13.94
2018-07-02T05:19:36.631Z,13.78
2018-07-02T05:22:05.257Z,14.18
2018-07-02T05:24:34.273Z,14.38
2018-07-02T05:27:02.538Z,14.45
2018-07-02T05:29:30.953Z,14.58
2018-07-02T05:31:59.234Z,14.11
2018-07-02T05:34:27.589Z,14.35
2018-07-02T05:36:56.052Z,14.31
2018-07-02T05:39:24.402Z,14.56
2018-07-02T05:41:52.897Z,14.85
2018-07-02T05:44:21.328Z,15.35
2018-07-02T05:46:49.743Z,15.91
2018-07-02T05:49:18.079Z,16.76
2018-07-02T05:51:46.650Z,18.95
2018-07-02T05:54:15.049Z,19.42
2018-07-02T05:56:44.174Z,22.00
2018-07-02T05:59:12.445Z,22.08
2018-07-02T06:01:40.712Z,22.79
2018-07-02T06:04:08.925Z,22.92
2018-07-02T06:06:37.686Z,22.82
2018-07-02T06:09:09.623Z,23.26
2018-07-02T06:11:39.233Z,23.10
2018-07-02T06:14:07.708Z,23.20
2018-07-02T06:16:35.891Z,24.93
2018-07-02T06:19:05.230Z,24.79
2018-07-02T06:21:33.463Z,24.01
2018-07-02T06:24:01.788Z,24.10
2018-07-02T06:26:30.119Z,26.51
2018-07-02T06:28:58.319Z,25.90
2018-07-02T06:31:26.895Z,23.95
2018-07-02T06:33:55.080Z,24.84
2018-07-02T06:36:23.442Z,24.17
2018-07-02T06:38:51.675Z,25.45
2018-07-02T06:41:19.888Z,25.38
2018-07-02T06:43:48.374Z,24.80
2018-07-02T06:46:16.968Z,27.98
2018-07-02T06:48:45.248Z,27.99
2018-07-02T06:51:13.485Z,26.12
2018-07-02T06:53:42.885Z,27.63
2018-07-02T06:56:11.163Z,21.02
2018-07-02T06:58:39.367Z,22.12
2018-07-02T07:01:08.183Z,25.96
2018-07-02T07:03:36.449Z,27.38
2018-07-02T07:06:04.710Z,28.07
2018-07-02T07:08:33.000Z,23.52
2018-07-02T07:11:01.246Z,24.61
2018-07-02T07:13:30.148Z,25.29
2018-07-02T07:15:58.395Z,23.88
2018-07-02T07:18:27.744Z,22.35
2018-07-02T07:20:56.018Z,26.56
2018-07-02T07:23:24.246Z,26.09
2018-07-02T07:25:52.640Z,24.24
2018-07-02T07:28:21.061Z,25.75
2018-07-02T07:30:49.344Z,23.73
2018-07-02T07:33:17.785Z,23.44
2018-07-02T07:35:46.536Z,20.96
2018-07-02T07:38:14.803Z,18.96
2018-07-02T07:40:43.058Z,18.46
2018-07-02T07:43:11.312Z,17.60
2018-07-02T07:45:39.601Z,18.58
2018-07-02T07:48:07.985Z,19.05
2018-07-02T07:50:36.332Z,17.88
2018-07-02T07:53:04.618Z,18.64
2018-07-02T07:55:33.024Z,18.64
2018-07-02T07:58:01.608Z,19.01
2018-07-02T08:00:30.010Z,19.01
2018-07-02T08:02:58.242Z,19.07
2018-07-02T08:05:27.410Z,19.05
2018-07-02T08:07:55.781Z,19.21
2018-07-02T08:10:24.099Z,19.39
2018-07-02T08:12:52.189Z,19.26
2018-07-02T08:15:20.634Z,19.53
2018-07-02T08:17:49.403Z,19.53
2018-07-02T08:20:17.627Z,19.87
2018-07-02T08:22:46.171Z,19.49
2018-07-02T08:25:14.437Z,20.02
2018-07-02T08:27:42.772Z,19.87
2018-07-02T08:30:11.331Z,19.63
2018-07-02T08:32:39.711Z,19.69
2018-07-02T08:35:08.004Z,20.08
2018-07-02T08:37:36.359Z,19.90
2018-07-02T08:43:46.786Z,19.50
2018-07-02T08:46:14.939Z,19.56
2018-07-02T08:48:43.107Z,19.40
2018-07-02T08:51:11.420Z,19.77
2018-07-02T08:53:39.738Z,20.07
2018-07-02T08:56:07.876Z,19.92
2018-07-02T08:58:36.262Z,19.89
2018-07-02T09:01:04.693Z,20.57
2018-07-02T09:03:33.058Z,21.01
2018-07-02T09:06:01.386Z,20.45
2018-07-02T09:08:29.603Z,20.56
2018-07-02T09:10:57.888Z,21.06
2018-07-02T09:13:26.259Z,20.93
2018-07-02T09:15:55.091Z,20.61
2018-07-02T09:18:23.494Z,19.96
2018-07-02T09:20:51.758Z,20.30
2018-07-02T09:23:20.049Z,20.54
2018-07-02T09:25:48.821Z,21.09
2018-07-02T09:28:17.039Z,21.64
2018-07-02T09:30:45.377Z,21.76
2018-07-02T09:33:13.883Z,21.53
2018-07-02T09:35:42.851Z,21.13
2018-07-02T09:38:11.061Z,21.53
2018-07-02T09:40:39.288Z,21.27
2018-07-02T09:43:07.726Z,21.68
2018-07-02T09:45:35.953Z,21.80
2018-07-02T09:48:04.300Z,21.69
2018-07-02T09:50:32.648Z,21.90
2018-07-02T09:53:00.910Z,21.71
2018-07-02T09:55:29.193Z,21.42
2018-07-02T09:57:58.018Z,21.69
2018-07-02T10:00:26.581Z,21.87
2018-07-02T10:02:54.955Z,21.59
2018-07-02T10:05:23.356Z,21.72
2018-07-02T10:07:52.204Z,22.13
2018-07-02T10:10:20.664Z,21.63
2018-07-02T10:12:49.030Z,21.41
2018-07-02T10:15:17.217Z,21.94
2018-07-02T10:17:46.672Z,21.73
2018-07-02T10:20:14.939Z,22.08
2018-07-02T10:22:43.209Z,22.35
2018-07-02T10:25:11.528Z,22.36
2018-07-02T10:27:39.810Z,22.56
2018-07-02T10:30:08.121Z,22.86
2018-07-02T10:32:36.473Z,22.39
2018-07-02T10:35:04.877Z,21.72
2018-07-02T10:37:33.242Z,21.76
2018-07-02T10:40:01.943Z,22.53
2018-07-02T10:42:30.103Z,22.72
2018-07-02T10:44:58.451Z,22.96
2018-07-02T10:47:26.671Z,23.38
2018-07-02T10:49:55.115Z,23.65
2018-07-02T10:52:23.530Z,22.90
2018-07-02T10:54:51.768Z,22.94
2018-07-02T10:57:20.147Z,22.72
2018-07-02T10:59:49.242Z,22.01
2018-07-02T11:02:17.443Z,22.74
2018-07-02T11:04:45.771Z,22.17
2018-07-02T11:07:14.110Z,22.68
2018-07-02T11:09:42.584Z,22.41
2018-07-02T11:12:10.871Z,22.64
2018-07-02T11:14:39.119Z,22.49
2018-07-02T11:17:07.591Z,23.20
2018-07-02T11:19:36.019Z,23.50
2018-07-02T11:22:04.743Z,22.91
2018-07-02T11:24:33.098Z,23.56
2018-07-02T11:27:01.423Z,23.18
2018-07-02T11:29:29.801Z,23.14
2018-07-02T11:31:58.469Z,23.69
2018-07-02T11:34:26.843Z,23.00
2018-07-02T11:36:56.056Z,22.71
2018-07-02T11:39:24.324Z,22.65
2018-07-02T11:41:53.090Z,23.11
2018-07-02T11:44:21.373Z,22.90
2018-07-02T11:46:50.127Z,23.74
2018-07-02T11:49:18.451Z,23.89
2018-07-02T11:51:46.881Z,23.87
2018-07-02T11:54:15.378Z,23.54
2018-07-02T11:56:43.776Z,24.49
2018-07-02T11:59:12.122Z,23.94
2018-07-02T12:01:40.746Z,23.86
2018-07-02T12:04:10.498Z,23.44
2018-07-02T12:06:38.838Z,23.55
2018-07-02T12:09:10.273Z,22.90
2018-07-02T12:11:38.812Z,22.81
2018-07-02T12:14:07.790Z,23.39
2018-07-02T12:16:36.107Z,23.34
2018-07-02T12:19:04.568Z,24.09
2018-07-02T12:21:33.355Z,24.67
2018-07-02T12:24:01.755Z,25.20
2018-07-02T12:26:30.266Z,24.57
2018-07-02T12:28:58.740Z,24.45
2018-07-02T12:31:27.128Z,24.41
2018-07-02T12:33:56.099Z,23.92
2018-07-02T12:36:24.455Z,23.98
2018-07-02T12:38:59.226Z,24.74
2018-07-02T12:41:27.979Z,25.22
2018-07-02T12:44:01.268Z,25.40
2018-07-02T12:46:29.687Z,24.19
2018-07-02T12:49:02.628Z,24.00
2018-07-02T12:51:31.157Z,24.61
2018-07-02T12:53:59.546Z,25.09
2018-07-02T12:56:28.221Z,24.64
2018-07-02T12:58:57.660Z,24.54
2018-07-02T13:01:26.749Z,24.22
2018-07-02T13:03:55.583Z,24.25
2018-07-02T13:06:23.915Z,23.58
2018-07-02T13:08:52.424Z,23.86
2018-07-02T13:11:20.721Z,24.40
2018-07-02T13:13:50.767Z,25.05
2018-07-02T13:16:19.238Z,25.56
2018-07-02T13:18:47.654Z,25.79
2018-07-02T13:21:16.554Z,24.62
2018-07-02T13:23:45.225Z,24.23
2018-07-02T13:26:14.319Z,24.12
2018-07-02T13:28:42.701Z,24.30
2018-07-02T13:31:11.379Z,24.57
2018-07-02T13:33:40.081Z,23.94
2018-07-02T13:36:08.388Z,24.99
2018-07-02T13:38:36.750Z,25.40
2018-07-02T13:41:05.356Z,24.53
2018-07-02T13:43:34.010Z,24.94
2018-07-02T13:46:04.305Z,24.84
2018-07-02T13:48:34.184Z,25.14
2018-07-02T13:51:08.581Z,25.50
2018-07-02T13:53:37.063Z,25.74
2018-07-02T13:56:06.091Z,25.46
2018-07-02T13:58:35.130Z,24.89
2018-07-02T14:01:04.245Z,24.63
2018-07-02T14:03:38.351Z,24.52
2018-07-02T14:06:12.565Z,24.94
2018-07-02T14:08:43.304Z,24.57
2018-07-02T14:11:11.691Z,25.17
2018-07-02T14:13:40.240Z,24.69
2018-07-02T14:16:14.252Z,24.83
2018-07-02T14:18:42.736Z,24.99
2018-07-02T14:21:11.246Z,25.49
2018-07-02T14:23:39.522Z,25.57
2018-07-02T14:26:08.008Z,25.77
2018-07-02T14:28:36.325Z,26.05
2018-07-02T14:31:05.271Z,24.72
2018-07-02T14:33:33.853Z,24.56
2018-07-02T14:36:03.136Z,24.03
2018-07-02T14:38:36.255Z,24.39
2018-07-02T14:41:06.156Z,24.82
2018-07-02T14:43:39.338Z,24.89
2018-07-02T14:46:13.145Z,24.73
2018-07-02T14:48:41.735Z,24.93
2018-07-02T14:51:10.380Z,25.87
2018-07-02T14:53:41.214Z,24.47
2018-07-02T14:56:09.708Z,24.99
2018-07-02T14:58:38.105Z,24.38
2018-07-02T15:01:07.610Z,24.69
2018-07-02T15:03:38.066Z,25.06
2018-07-02T15:06:07.337Z,24.79
2018-07-02T15:08:35.717Z,25.26
2018-07-02T15:11:04.016Z,25.95
2018-07-02T15:13:32.613Z,26.10
2018-07-02T15:16:00.932Z,25.73
2018-07-02T15:18:29.813Z,25.65
2018-07-02T15:20:58.197Z,25.96
2018-07-02T15:23:27.659Z,25.07
2018-07-02T15:25:57.020Z,25.72
2018-07-02T15:28:26.054Z,25.96
2018-07-02T15:30:54.907Z,25.50
2018-07-02T15:33:26.682Z,24.99
2018-07-02T15:35:55.346Z,25.38
2018-07-02T15:38:23.766Z,25.75
2018-07-02T15:40:52.521Z,25.47
2018-07-02T15:43:20.872Z,25.51
2018-07-02T15:45:49.471Z,26.21
2018-07-02T15:48:17.968Z,25.89
2018-07-02T15:50:46.671Z,25.26
2018-07-02T15:53:15.035Z,25.23
2018-07-02T15:55:43.278Z,24.85
2018-07-02T15:58:11.934Z,25.07
2018-07-02T16:00:40.307Z,24.85
2018-07-02T16:03:08.709Z,25.82
2018-07-02T16:05:37.090Z,25.69
2018-07-02T16:08:05.412Z,25.99
2018-07-02T16:10:33.785Z,25.45
2018-07-02T16:13:02.165Z,25.43
2018-07-02T16:15:30.645Z,24.65
2018-07-02T16:17:58.900Z,24.80
2018-07-02T16:20:28.592Z,24.82
2018-07-02T16:22:56.928Z,25.17
2018-07-02T16:25:25.390Z,24.79
2018-07-02T16:27:53.662Z,24.68
2018-07-02T16:30:22.096Z,24.72
2018-07-02T16:32:50.410Z,24.75
2018-07-02T16:35:18.899Z,25.30
2018-07-02T16:37:47.109Z,25.16
2018-07-02T16:40:16.530Z,24.78
2018-07-02T16:42:44.844Z,24.79
2018-07-02T16:45:13.122Z,24.56
2018-07-02T16:47:41.405Z,24.46
2018-07-02T16:50:15.581Z,24.46
2018-07-02T16:52:44.646Z,24.32
2018-07-02T16:55:12.933Z,24.28
2018-07-02T16:57:41.538Z,24.44
2018-07-02T17:00:09.843Z,24.31
2018-07-02T17:02:38.423Z,24.53
2018-07-02T17:05:06.661Z,24.45
2018-07-02T17:07:34.930Z,24.39
2018-07-02T17:10:03.857Z,24.57
2018-07-02T17:12:32.548Z,24.80
2018-07-02T17:15:00.890Z,24.60
2018-07-02T17:17:29.240Z,24.13
2018-07-02T17:19:57.611Z,24.26
2018-07-02T17:22:27.068Z,24.68
2018-07-02T17:24:56.810Z,24.38
2018-07-02T17:27:25.067Z,24.23
2018-07-02T17:29:53.557Z,24.10
2018-07-02T17:32:24.090Z,24.06
2018-07-02T17:34:52.385Z,24.01
2018-07-02T17:37:20.934Z,23.93
2018-07-02T17:39:49.313Z,24.08
2018-07-02T17:42:17.623Z,23.86
2018-07-02T17:44:45.957Z,23.63
2018-07-02T17:50:15.506Z,23.62
2018-07-02T17:52:43.765Z,23.69
2018-07-02T17:55:12.091Z,23.50
2018-07-02T17:57:40.391Z,23.41
2018-07-02T18:00:08.911Z,23.35
2018-07-02T18:02:37.676Z,23.49
2018-07-02T18:05:06.176Z,23.47
2018-07-02T18:07:34.688Z,23.45
2018-07-02T18:10:03.454Z,23.43
2018-07-02T18:12:32.549Z,23.02
2018-07-02T18:15:01.441Z,22.96
2018-07-02T18:17:40.070Z,23.23
2018-07-02T18:20:08.729Z,23.17
2018-07-02T18:22:37.323Z,23.26
2018-07-02T18:25:06.107Z,23.28
2018-07-02T18:27:34.607Z,23.03
2018-07-02T18:30:03.699Z,22.75
2018-07-02T18:32:33.497Z,22.77
2018-07-02T18:35:06.526Z,22.68
2018-07-02T18:37:35.076Z,22.66
2018-07-02T18:40:31.855Z,22.49
2018-07-02T18:43:00.388Z,22.51
2018-07-02T18:45:28.931Z,22.56
2018-07-02T18:47:57.524Z,22.52
2018-07-02T18:50:25.899Z,22.52
2018-07-02T18:52:54.797Z,22.48
2018-07-02T18:55:23.606Z,21.96
2018-07-02T18:57:53.217Z,21.83
2018-07-02T19:00:22.568Z,21.80
2018-07-02T19:02:51.048Z,21.60
2018-07-02T19:05:23.850Z,21.46
2018-07-02T19:07:52.700Z,21.46
2018-07-02T19:10:21.195Z,21.50
2018-07-02T19:12:49.763Z,21.54
2018-07-02T19:15:18.330Z,21.17
2018-07-02T19:17:47.184Z,20.90
2018-07-02T19:20:15.707Z,20.90
2018-07-02T19:22:44.175Z,21.10
2018-07-02T19:25:12.517Z,20.64
2018-07-02T19:27:41.083Z,20.50
2018-07-02T19:30:10.182Z,20.30
2018-07-02T19:32:38.603Z,20.13
2018-07-02T19:35:08.058Z,19.82
2018-07-02T19:37:36.373Z,19.65
2018-07-02T19:40:04.983Z,19.45
2018-07-02T19:42:33.742Z,19.55
2018-07-02T19:45:02.325Z,19.12
2018-07-02T19:47:30.838Z,19.04
2018-07-02T19:49:59.817Z,18.92
2018-07-02T19:52:29.137Z,18.97
2018-07-02T19:54:57.947Z,19.00
2018-07-02T19:57:27.397Z,18.70
2018-07-02T19:59:56.299Z,18.73
2018-07-02T20:02:25.080Z,18.34
2018-07-02T20:04:53.848Z,19.43
2018-07-02T20:07:26.518Z,18.81
2018-07-02T20:09:55.151Z,18.87
2018-07-02T20:12:23.592Z,18.32
2018-07-02T20:14:52.511Z,18.22
2018-07-02T20:17:21.072Z,18.11
2018-07-02T20:19:49.626Z,18.09
2018-07-02T20:22:18.056Z,17.96
2018-07-02T20:24:46.419Z,17.92
2018-07-02T20:27:14.775Z,18.14
2018-07-02T20:29:43.257Z,17.72
2018-07-02T20:32:11.850Z,17.84
2018-07-02T20:34:40.288Z,18.30
2018-07-02T20:37:08.756Z,18.10
2018-07-02T20:39:37.192Z,17.98
2018-07-02T20:42:05.677Z,18.22
2018-07-02T20:44:34.036Z,18.00
2018-07-02T20:47:02.525Z,17.91
2018-07-02T20:49:31.054Z,17.84
2018-07-02T20:51:59.373Z,17.98
2018-07-02T20:54:27.750Z,18.00
2018-07-02T20:56:56.127Z,17.78
2018-07-02T20:59:24.377Z,18.20
